createdAt,value
2017-10-21T00:00:32.679Z,0
2017-10-21T00:01:33.006Z,0
2017-10-21T00:02:32.304Z,0
2017-10-21T00:03:32.293Z,0
2017-10-21T00:04:32.283Z,0
2017-10-21T00:05:32.613Z,0
2017-10-21T00:06:32.299Z,0
2017-10-21T00:07:32.588Z,0
2017-10-21T00:08:32.568Z,0
2017-10-21T00:09:31.868Z,0
2017-10-21T00:10:32.192Z,0
2017-10-21T00:11:31.851Z,0
2017-10-21T00:12:32.499Z,0
2017-10-21T00:13:32.469Z,0
2017-10-21T00:14:32.463Z,0
2017-10-21T00:15:32.442Z,0
2017-10-21T00:16:32.773Z,0
2017-10-21T00:17:32.110Z,0
2017-10-21T00:18:32.073Z,0
2017-10-21T00:19:31.728Z,0
2017-10-21T00:20:32.368Z,0
2017-10-21T00:21:32.360Z,0
2017-10-21T00:22:32.016Z,0
2017-10-21T00:23:31.995Z,0
2017-10-21T00:24:32.307Z,0
2017-10-21T00:25:31.629Z,0
2017-10-21T00:26:32.277Z,0
2017-10-21T00:27:32.629Z,0
2017-10-21T00:28:31.583Z,0
2017-10-21T00:29:32.232Z,0
2017-10-21T00:30:31.220Z,0
2017-10-21T00:31:32.204Z,0
2017-10-21T00:32:32.191Z,0
2017-10-21T00:33:32.187Z,0
2017-10-21T00:34:31.488Z,0
2017-10-21T00:35:32.154Z,0
2017-10-21T00:36:31.125Z,0
2017-10-21T00:37:31.115Z,0
2017-10-21T00:38:31.760Z,0
2017-10-21T00:39:32.454Z,0
2017-10-21T00:40:32.064Z,0
2017-10-21T00:41:31.729Z,0
2017-10-21T00:42:31.373Z,0
2017-10-21T00:43:32.032Z,0
2017-10-21T00:44:31.681Z,0
2017-10-21T00:45:31.669Z,0
2017-10-21T00:46:32.306Z,0
2017-10-21T00:47:31.971Z,0
2017-10-21T00:48:30.947Z,0
2017-10-21T00:49:31.595Z,0
2017-10-21T00:50:31.923Z,0
2017-10-21T00:51:31.579Z,0
2017-10-21T00:52:31.560Z,0
2017-10-21T00:53:31.882Z,0
2017-10-21T00:54:32.195Z,0
2017-10-21T00:55:31.518Z,0
2017-10-21T00:56:31.834Z,0
2017-10-21T00:57:31.825Z,0
2017-10-21T00:58:31.129Z,0
2017-10-21T00:59:31.788Z,0
2017-10-21T01:00:31.783Z,0
2017-10-21T01:01:31.754Z,0
2017-10-21T01:02:31.411Z,0
2017-10-21T01:03:31.742Z,0
2017-10-21T01:04:31.377Z,0
2017-10-21T01:05:31.713Z,0
2017-10-21T01:06:31.690Z,0
2017-10-21T01:07:31.682Z,0
2017-10-21T01:08:31.661Z,0
2017-10-21T01:09:30.969Z,0
2017-10-21T01:10:31.635Z,0
2017-10-21T01:11:31.295Z,0
2017-10-21T01:12:31.269Z,0
2017-10-21T01:13:31.248Z,0
2017-10-21T01:14:31.571Z,0
2017-10-21T01:15:31.881Z,0
2017-10-21T01:16:31.212Z,0
2017-10-21T01:17:31.520Z,0
2017-10-21T01:18:31.709Z,0
2017-10-21T01:19:31.157Z,0
2017-10-21T01:20:31.476Z,0
2017-10-21T01:21:31.456Z,0
2017-10-21T01:22:31.113Z,0
2017-10-21T01:23:31.115Z,0
2017-10-21T01:24:31.077Z,0
2017-10-21T01:25:31.404Z,0
2017-10-21T01:26:31.389Z,0
2017-10-21T01:27:30.709Z,0
2017-10-21T01:28:31.696Z,0
2017-10-21T01:29:31.016Z,0
2017-10-21T01:30:30.662Z,0
2017-10-21T01:31:30.969Z,0
2017-10-21T01:32:30.973Z,0
2017-10-21T01:33:30.961Z,0
2017-10-21T01:34:31.620Z,0
2017-10-21T01:35:31.285Z,0
2017-10-21T01:36:30.910Z,0
2017-10-21T01:37:30.568Z,0
2017-10-21T01:38:30.877Z,0
2017-10-21T01:39:31.540Z,0
2017-10-21T01:40:31.183Z,0
2017-10-21T01:41:30.163Z,0
2017-10-21T01:42:30.488Z,0
2017-10-21T01:43:31.131Z,0
2017-10-21T01:44:30.448Z,0
2017-10-21T01:45:31.094Z,0
2017-10-21T01:46:30.424Z,0
2017-10-21T01:47:30.741Z,0
2017-10-21T01:48:30.717Z,0
2017-10-21T01:49:31.041Z,0
2017-10-21T01:50:31.036Z,0
2017-10-21T01:51:31.354Z,0
2017-10-21T01:52:30.010Z,0
2017-10-21T01:53:30.988Z,0
2017-10-21T01:54:31.323Z,0
2017-10-21T01:55:30.294Z,0
2017-10-21T01:56:30.937Z,0
2017-10-21T01:57:30.588Z,0
2017-10-21T01:58:30.915Z,0
2017-10-21T01:59:30.564Z,0
2017-10-21T02:00:30.551Z,0
2017-10-21T02:01:31.207Z,0
2017-10-21T02:02:30.526Z,0
2017-10-21T02:03:30.503Z,0
2017-10-21T02:04:30.496Z,0
2017-10-21T02:05:30.486Z,0
2017-10-21T02:06:31.118Z,0
2017-10-21T02:07:30.445Z,0
2017-10-21T02:08:30.773Z,0
2017-10-21T02:09:30.762Z,0
2017-10-21T02:10:30.079Z,0
2017-10-21T02:11:30.734Z,0
2017-10-21T02:12:30.703Z,0
2017-10-21T02:13:31.022Z,0
2017-10-21T02:14:30.010Z,0
2017-10-21T02:15:30.663Z,0
2017-10-21T02:16:29.974Z,0
2017-10-21T02:17:30.302Z,0
2017-10-21T02:18:30.289Z,0
2017-10-21T02:19:30.322Z,0
2017-10-21T02:20:30.263Z,0
2017-10-21T02:21:29.568Z,0
2017-10-21T02:22:30.562Z,0
2017-10-21T02:23:30.550Z,0
2017-10-21T02:24:30.195Z,0
2017-10-21T02:25:30.198Z,0
2017-10-21T02:26:30.496Z,0
2017-10-21T02:27:30.151Z,0
2017-10-21T02:28:30.808Z,0
2017-10-21T02:29:29.449Z,0
2017-10-21T02:30:30.113Z,0
2017-10-21T02:31:30.765Z,0
2017-10-21T02:32:30.464Z,0
2017-10-21T02:33:30.751Z,0
2017-10-21T02:34:29.713Z,0
2017-10-21T02:35:30.728Z,0
2017-10-21T02:36:30.032Z,0
2017-10-21T02:37:29.667Z,0
2017-10-21T02:38:29.644Z,0
2017-10-21T02:39:29.654Z,0
2017-10-21T02:40:29.953Z,0
2017-10-21T02:41:30.612Z,0
2017-10-21T02:42:29.922Z,0
2017-10-21T02:43:29.960Z,0
2017-10-21T02:44:29.898Z,0
2017-10-21T02:45:30.574Z,0
2017-10-21T02:46:29.195Z,0
2017-10-21T02:47:30.561Z,0
2017-10-21T02:48:29.838Z,0
2017-10-21T02:49:30.170Z,0
2017-10-21T02:50:30.161Z,0
2017-10-21T02:51:29.121Z,0
2017-10-21T02:52:29.779Z,0
2017-10-21T02:53:30.117Z,0
2017-10-21T02:54:29.410Z,0
2017-10-21T02:55:30.406Z,0
2017-10-21T02:56:29.760Z,0
2017-10-21T02:57:30.376Z,0
2017-10-21T02:58:30.040Z,0
2017-10-21T02:59:29.688Z,0
2017-10-21T03:00:29.331Z,0
2017-10-21T03:01:30.327Z,0
2017-10-21T03:02:29.305Z,0
2017-10-21T03:03:29.619Z,0
2017-10-21T03:04:29.947Z,0
2017-10-21T03:05:29.251Z,0
2017-10-21T03:06:30.238Z,0
2017-10-21T03:07:29.562Z,0
2017-10-21T03:08:29.555Z,0
2017-10-21T03:09:29.866Z,0
2017-10-21T03:10:30.195Z,0
2017-10-21T03:11:29.501Z,0
2017-10-21T03:12:29.815Z,0
2017-10-21T03:13:30.136Z,0
2017-10-21T03:14:29.788Z,0
2017-10-21T03:15:30.121Z,0
2017-10-21T03:16:29.749Z,0
2017-10-21T03:17:29.741Z,0
2017-10-21T03:18:29.472Z,0
2017-10-21T03:19:29.050Z,0
2017-10-21T03:20:29.396Z,0
2017-10-21T03:21:29.350Z,0
2017-10-21T03:22:29.333Z,0
2017-10-21T03:23:29.688Z,0
2017-10-21T03:24:29.638Z,0
2017-10-21T03:25:29.634Z,0
2017-10-21T03:26:29.284Z,0
2017-10-21T03:27:29.597Z,0
2017-10-21T03:28:29.599Z,0
2017-10-21T03:29:29.231Z,0
2017-10-21T03:30:28.890Z,0
2017-10-21T03:31:29.535Z,0
2017-10-21T03:32:29.199Z,0
2017-10-21T03:33:29.508Z,0
2017-10-21T03:34:29.488Z,0
2017-10-21T03:35:29.473Z,0
2017-10-21T03:36:29.126Z,0
2017-10-21T03:37:29.466Z,0
2017-10-21T03:38:29.422Z,0
2017-10-21T03:39:29.426Z,0
2017-10-21T03:40:29.078Z,0
2017-10-21T03:41:29.723Z,0
2017-10-21T03:42:29.048Z,0
2017-10-21T03:43:29.367Z,0
2017-10-21T03:44:29.339Z,0
2017-10-21T03:45:29.678Z,0
2017-10-21T03:46:29.647Z,0
2017-10-21T03:47:28.978Z,0
2017-10-21T03:48:28.953Z,0
2017-10-21T03:49:29.274Z,0
2017-10-21T03:50:29.260Z,0
2017-10-21T03:51:28.240Z,0
2017-10-21T03:52:28.882Z,0
2017-10-21T03:53:29.219Z,0
2017-10-21T03:54:28.530Z,0
2017-10-21T03:55:28.849Z,0
2017-10-21T03:56:28.838Z,0
2017-10-21T03:57:28.502Z,0
2017-10-21T03:58:29.136Z,0
2017-10-21T03:59:29.454Z,0
2017-10-21T04:00:28.439Z,0
2017-10-21T04:01:28.778Z,0
2017-10-21T04:02:29.428Z,0
2017-10-21T04:03:28.738Z,0
2017-10-21T04:04:28.376Z,0
2017-10-21T04:05:29.035Z,0
2017-10-21T04:06:28.345Z,0
2017-10-21T04:07:28.000Z,0
2017-10-21T04:08:28.647Z,0
2017-10-21T04:09:28.973Z,0
2017-10-21T04:10:27.950Z,0
2017-10-21T04:11:28.601Z,0
2017-10-21T04:12:28.264Z,0
2017-10-21T04:13:28.914Z,0
2017-10-21T04:14:29.224Z,0
2017-10-21T04:15:28.879Z,0
2017-10-21T04:16:28.533Z,0
2017-10-21T04:17:28.517Z,0
2017-10-21T04:18:28.838Z,0
2017-10-21T04:19:29.160Z,0
2017-10-21T04:20:28.824Z,0
2017-10-21T04:21:28.796Z,0
2017-10-21T04:22:28.777Z,0
2017-10-21T04:23:29.110Z,0
2017-10-21T04:24:28.080Z,0
2017-10-21T04:25:28.737Z,0
2017-10-21T04:26:28.395Z,0
2017-10-21T04:27:29.038Z,0
2017-10-21T04:28:28.024Z,0
2017-10-21T04:29:28.340Z,0
2017-10-21T04:30:28.684Z,0
2017-10-21T04:31:28.640Z,0
2017-10-21T04:32:27.960Z,0
2017-10-21T04:33:27.943Z,0
2017-10-21T04:34:28.597Z,0
2017-10-21T04:35:27.917Z,0
2017-10-21T04:36:28.916Z,0
2017-10-21T04:37:28.885Z,0
2017-10-21T04:38:28.597Z,0
2017-10-21T04:39:28.869Z,0
2017-10-21T04:40:28.511Z,0
2017-10-21T04:41:28.168Z,0
2017-10-21T04:42:28.153Z,0
2017-10-21T04:43:28.470Z,0
2017-10-21T04:44:28.462Z,0
2017-10-21T04:45:28.103Z,0
2017-10-21T04:46:28.424Z,0
2017-10-21T04:47:28.749Z,0
2017-10-21T04:48:28.717Z,0
2017-10-21T04:49:28.155Z,0
2017-10-21T04:50:27.693Z,0
2017-10-21T04:51:28.030Z,0
2017-10-21T04:52:28.011Z,0
2017-10-21T04:53:28.319Z,0
2017-10-21T04:54:28.315Z,0
2017-10-21T04:55:27.627Z,0
2017-10-21T04:56:28.270Z,0
2017-10-21T04:57:27.598Z,0
2017-10-21T04:58:27.574Z,0
2017-10-21T04:59:27.335Z,0
2017-10-21T05:00:28.222Z,0
2017-10-21T05:01:27.869Z,0
2017-10-21T05:02:28.186Z,0
2017-10-21T05:03:28.524Z,0
2017-10-21T05:04:27.816Z,0
2017-10-21T05:05:28.165Z,0
2017-10-21T05:06:27.801Z,0
2017-10-21T05:07:27.443Z,0
2017-10-21T05:08:27.783Z,0
2017-10-21T05:09:27.852Z,0
2017-10-21T05:10:28.071Z,0
2017-10-21T05:11:27.723Z,0
2017-10-21T05:12:27.409Z,0
2017-10-21T05:13:28.032Z,0
2017-10-21T05:14:27.678Z,0
2017-10-21T05:15:27.334Z,0
2017-10-21T05:16:27.651Z,0
2017-10-21T05:17:27.630Z,0
2017-10-21T05:18:28.031Z,0
2017-10-21T05:19:28.387Z,0
2017-10-21T05:20:27.595Z,0
2017-10-21T05:21:27.585Z,0
2017-10-21T05:22:27.564Z,0
2017-10-21T05:23:28.225Z,0
2017-10-21T05:24:28.203Z,0
2017-10-21T05:25:27.538Z,0
2017-10-21T05:26:27.509Z,0
2017-10-21T05:27:28.182Z,0
2017-10-21T05:28:27.474Z,0
2017-10-21T05:29:27.799Z,0
2017-10-21T05:30:28.113Z,0
2017-10-21T05:31:27.762Z,0
2017-10-21T05:32:27.432Z,0
2017-10-21T05:33:27.074Z,0
2017-10-21T05:34:27.727Z,0
2017-10-21T05:35:27.714Z,0
2017-10-21T05:36:27.364Z,0
2017-10-21T05:37:28.020Z,0
2017-10-21T05:38:27.669Z,0
2017-10-21T05:39:26.691Z,0
2017-10-21T05:40:27.649Z,0
2017-10-21T05:41:27.293Z,0
2017-10-21T05:42:27.941Z,0
2017-10-21T05:43:27.925Z,0
2017-10-21T05:44:27.253Z,0
2017-10-21T05:45:27.898Z,0
2017-10-21T05:46:27.207Z,0
2017-10-21T05:47:27.534Z,0
2017-10-21T05:48:27.183Z,0
2017-10-21T05:49:27.830Z,0
2017-10-21T05:50:27.820Z,0
2017-10-21T05:51:27.150Z,0
2017-10-21T05:52:27.792Z,0
2017-10-21T05:53:27.450Z,0
2017-10-21T05:54:26.416Z,0
2017-10-21T05:55:27.415Z,0
2017-10-21T05:56:27.274Z,0
2017-10-21T05:57:27.374Z,0
2017-10-21T05:58:27.369Z,0
2017-10-21T05:59:27.359Z,0
2017-10-21T06:00:27.336Z,0
2017-10-21T06:01:27.317Z,0
2017-10-21T06:02:27.646Z,0
2017-10-21T06:03:27.299Z,0
2017-10-21T06:04:26.596Z,0
2017-10-21T06:05:27.628Z,0
2017-10-21T06:06:27.268Z,0
2017-10-21T06:07:27.259Z,0
2017-10-21T06:08:27.221Z,0
2017-10-21T06:09:27.209Z,5
2017-10-21T06:10:26.874Z,5
2017-10-21T06:11:26.519Z,5
2017-10-21T06:12:27.175Z,5
2017-10-21T06:13:27.148Z,5
2017-10-21T06:14:27.134Z,5
2017-10-21T06:15:26.445Z,5
2017-10-21T06:16:26.788Z,5
2017-10-21T06:17:27.085Z,10
2017-10-21T06:18:27.413Z,10
2017-10-21T06:19:26.735Z,10
2017-10-21T06:20:27.369Z,10
2017-10-21T06:21:27.023Z,10
2017-10-21T06:22:26.359Z,10
2017-10-21T06:23:27.326Z,10
2017-10-21T06:24:26.338Z,15
2017-10-21T06:25:26.986Z,15
2017-10-21T06:26:26.971Z,15
2017-10-21T06:27:26.592Z,15
2017-10-21T06:28:26.931Z,15
2017-10-21T06:29:26.566Z,15
2017-10-21T06:30:26.559Z,20
2017-10-21T06:31:27.220Z,20
2017-10-21T06:32:26.513Z,20
2017-10-21T06:33:26.850Z,25
2017-10-21T06:34:26.818Z,25
2017-10-21T06:35:26.142Z,25
2017-10-21T06:36:26.471Z,25
2017-10-21T06:37:26.779Z,30
2017-10-21T06:38:26.443Z,30
2017-10-21T06:39:26.088Z,30
2017-10-21T06:40:27.079Z,35
2017-10-21T06:41:26.391Z,35
2017-10-21T06:42:26.714Z,35
2017-10-21T06:43:26.350Z,35
2017-10-21T06:44:26.341Z,35
2017-10-21T06:45:26.662Z,40
2017-10-21T06:46:26.310Z,45
2017-10-21T06:47:26.301Z,45
2017-10-21T06:48:26.960Z,50
2017-10-21T06:49:26.628Z,45
2017-10-21T06:50:26.266Z,45
2017-10-21T06:51:26.253Z,45
2017-10-21T06:52:26.559Z,45
2017-10-21T06:53:26.215Z,45
2017-10-21T06:54:26.531Z,45
2017-10-21T06:55:25.861Z,45
2017-10-21T06:56:26.502Z,45
2017-10-21T06:57:26.173Z,40
2017-10-21T06:58:26.480Z,40
2017-10-21T06:59:26.782Z,40
2017-10-21T07:00:26.446Z,35
2017-10-21T07:01:26.765Z,35
2017-10-21T07:02:25.750Z,35
2017-10-21T07:03:26.085Z,35
2017-10-21T07:04:26.389Z,35
2017-10-21T07:05:26.046Z,40
2017-10-21T07:06:26.698Z,45
2017-10-21T07:07:26.353Z,55
2017-10-21T07:08:26.377Z,65
2017-10-21T07:09:26.311Z,70
2017-10-21T07:10:26.293Z,70
2017-10-21T07:11:25.629Z,70
2017-10-21T07:12:25.931Z,65
2017-10-21T07:13:26.268Z,55
2017-10-21T07:14:26.602Z,45
2017-10-21T07:15:26.219Z,45
2017-10-21T07:16:25.552Z,45
2017-10-21T07:17:26.195Z,40
2017-10-21T07:18:26.519Z,35
2017-10-21T07:19:26.694Z,30
2017-10-21T07:20:25.824Z,30
2017-10-21T07:21:25.466Z,40
2017-10-21T07:22:26.126Z,40
2017-10-21T07:23:26.505Z,40
2017-10-21T07:24:25.456Z,40
2017-10-21T07:25:25.427Z,45
2017-10-21T07:26:26.397Z,45
2017-10-21T07:27:25.418Z,45
2017-10-21T07:28:26.107Z,45
2017-10-21T07:29:26.024Z,45
2017-10-21T07:30:25.342Z,45
2017-10-21T07:31:25.663Z,45
2017-10-21T07:32:25.320Z,45
2017-10-21T07:33:25.982Z,45
2017-10-21T07:34:24.946Z,45
2017-10-21T07:35:25.612Z,45
2017-10-21T07:36:25.260Z,45
2017-10-21T07:37:26.240Z,45
2017-10-21T07:38:25.565Z,45
2017-10-21T07:39:25.878Z,45
2017-10-21T07:40:25.529Z,50
2017-10-21T07:41:25.860Z,50
2017-10-21T07:42:25.165Z,50
2017-10-21T07:43:25.839Z,50
2017-10-21T07:44:25.476Z,50
2017-10-21T07:45:25.464Z,55
2017-10-21T07:46:25.457Z,55
2017-10-21T07:47:25.437Z,55
2017-10-21T07:48:25.764Z,65
2017-10-21T07:49:25.396Z,65
2017-10-21T07:50:25.401Z,70
2017-10-21T07:51:25.718Z,70
2017-10-21T07:52:25.365Z,60
2017-10-21T07:53:25.350Z,50
2017-10-21T07:54:25.668Z,45
2017-10-21T07:55:25.328Z,45
2017-10-21T07:56:25.313Z,45
2017-10-21T07:57:24.957Z,45
2017-10-21T07:58:25.294Z,50
2017-10-21T07:59:25.613Z,50
2017-10-21T08:00:25.244Z,40
2017-10-21T08:01:25.350Z,35
2017-10-21T08:02:24.898Z,30
2017-10-21T08:03:25.213Z,30
2017-10-21T08:04:25.199Z,30
2017-10-21T08:05:24.844Z,35
2017-10-21T08:06:25.503Z,35
2017-10-21T08:07:25.153Z,35
2017-10-21T08:08:25.139Z,35
2017-10-21T08:09:25.466Z,35
2017-10-21T08:10:25.116Z,35
2017-10-21T08:11:24.772Z,40
2017-10-21T08:12:25.422Z,45
2017-10-21T08:13:25.066Z,45
2017-10-21T08:14:25.727Z,45
2017-10-21T08:15:25.054Z,50
2017-10-21T08:16:25.031Z,50
2017-10-21T08:17:25.688Z,50
2017-10-21T08:18:25.008Z,50
2017-10-21T08:19:25.324Z,50
2017-10-21T08:20:24.984Z,45
2017-10-21T08:21:24.964Z,45
2017-10-21T08:22:24.615Z,50
2017-10-21T08:23:24.596Z,50
2017-10-21T08:24:25.256Z,50
2017-10-21T08:25:24.575Z,45
2017-10-21T08:26:24.989Z,40
2017-10-21T08:27:24.543Z,35
2017-10-21T08:28:24.876Z,35
2017-10-21T08:29:25.529Z,35
2017-10-21T08:30:24.503Z,50
2017-10-21T08:31:24.497Z,60
2017-10-21T08:32:25.152Z,65
2017-10-21T08:33:25.139Z,65
2017-10-21T08:34:24.455Z,65
2017-10-21T08:35:24.774Z,70
2017-10-21T08:36:24.853Z,70
2017-10-21T08:37:24.736Z,70
2017-10-21T08:38:24.392Z,70
2017-10-21T08:39:24.712Z,75
2017-10-21T08:40:24.704Z,75
2017-10-21T08:41:24.681Z,65
2017-10-21T08:42:24.669Z,55
2017-10-21T08:43:24.986Z,45
2017-10-21T08:44:24.645Z,45
2017-10-21T08:45:24.621Z,45
2017-10-21T08:46:24.957Z,50
2017-10-21T08:47:24.265Z,50
2017-10-21T08:48:24.935Z,55
2017-10-21T08:49:24.236Z,65
2017-10-21T08:50:23.890Z,75
2017-10-21T08:51:24.546Z,80
2017-10-21T08:52:24.876Z,85
2017-10-21T08:53:24.846Z,95
2017-10-21T08:54:25.183Z,95
2017-10-21T08:55:24.485Z,90
2017-10-21T08:56:24.477Z,90
2017-10-21T08:57:24.787Z,80
2017-10-21T08:58:24.121Z,70
2017-10-21T08:59:24.107Z,65
2017-10-21T09:00:24.748Z,75
2017-10-21T09:01:24.835Z,75
2017-10-21T09:02:24.388Z,65
2017-10-21T09:03:24.371Z,65
2017-10-21T09:04:23.680Z,65
2017-10-21T09:05:24.344Z,70
2017-10-21T09:06:24.996Z,65
2017-10-21T09:07:24.642Z,60
2017-10-21T09:08:24.296Z,55
2017-10-21T09:09:24.615Z,50
2017-10-21T09:10:24.930Z,50
2017-10-21T09:11:25.028Z,60
2017-10-21T09:12:24.239Z,65
2017-10-21T09:13:23.890Z,70
2017-10-21T09:14:24.206Z,80
2017-10-21T09:15:24.541Z,75
2017-10-21T09:16:24.528Z,75
2017-10-21T09:17:24.844Z,70
2017-10-21T09:18:24.148Z,65
2017-10-21T09:19:24.347Z,65
2017-10-21T09:20:24.125Z,80
2017-10-21T09:21:24.457Z,85
2017-10-21T09:22:24.094Z,85
2017-10-21T09:23:24.103Z,90
2017-10-21T09:24:24.085Z,85
2017-10-21T09:25:23.723Z,85
2017-10-21T09:26:24.043Z,85
2017-10-21T09:27:24.029Z,85
2017-10-21T09:28:24.002Z,90
2017-10-21T09:29:24.347Z,90
2017-10-21T09:30:24.317Z,100
2017-10-21T09:31:23.965Z,105
2017-10-21T09:32:23.623Z,100
2017-10-21T09:33:24.273Z,95
2017-10-21T09:34:23.928Z,95
2017-10-21T09:35:23.570Z,95
2017-10-21T09:36:23.904Z,105
2017-10-21T09:37:24.672Z,105
2017-10-21T09:38:23.866Z,110
2017-10-21T09:39:23.527Z,110
2017-10-21T09:40:23.844Z,105
2017-10-21T09:41:24.183Z,105
2017-10-21T09:42:24.147Z,105
2017-10-21T09:43:23.810Z,105
2017-10-21T09:44:24.125Z,105
2017-10-21T09:45:24.446Z,115
2017-10-21T09:46:24.107Z,120
2017-10-21T09:47:23.510Z,105
2017-10-21T09:48:23.404Z,80
2017-10-21T09:49:23.716Z,65
2017-10-21T09:50:24.060Z,65
2017-10-21T09:51:23.684Z,65
2017-10-21T09:52:23.671Z,70
2017-10-21T09:53:23.655Z,75
2017-10-21T09:54:23.310Z,70
2017-10-21T09:55:23.961Z,80
2017-10-21T09:56:23.287Z,85
2017-10-21T09:57:24.280Z,95
2017-10-21T09:58:23.954Z,100
2017-10-21T09:59:23.247Z,85
2017-10-21T10:00:23.915Z,85
2017-10-21T10:01:23.560Z,80
2017-10-21T10:02:23.535Z,70
2017-10-21T10:03:23.527Z,70
2017-10-21T10:04:24.198Z,75
2017-10-21T10:05:23.862Z,65
2017-10-21T10:06:23.833Z,65
2017-10-21T10:07:23.802Z,65
2017-10-21T10:08:23.797Z,60
2017-10-21T10:09:23.132Z,60
2017-10-21T10:10:22.756Z,60
2017-10-21T10:11:24.087Z,55
2017-10-21T10:12:23.842Z,55
2017-10-21T10:13:23.405Z,55
2017-10-21T10:14:23.718Z,55
2017-10-21T10:15:23.361Z,50
2017-10-21T10:16:23.705Z,50
2017-10-21T10:17:23.382Z,55
2017-10-21T10:18:23.003Z,55
2017-10-21T10:19:23.648Z,55
2017-10-21T10:20:22.959Z,55
2017-10-21T10:21:23.279Z,55
2017-10-21T10:22:23.694Z,55
2017-10-21T10:23:23.258Z,55
2017-10-21T10:24:23.256Z,45
2017-10-21T10:25:23.904Z,45
2017-10-21T10:26:23.227Z,45
2017-10-21T10:27:23.211Z,45
2017-10-21T10:28:23.527Z,40
2017-10-21T10:29:23.851Z,40
2017-10-21T10:30:23.858Z,40
2017-10-21T10:31:23.519Z,40
2017-10-21T10:32:23.818Z,40
2017-10-21T10:33:23.133Z,45
2017-10-21T10:34:23.444Z,45
2017-10-21T10:35:23.443Z,45
2017-10-21T10:36:22.749Z,45
2017-10-21T10:37:22.727Z,45
2017-10-21T10:38:23.396Z,50
2017-10-21T10:39:22.707Z,50
2017-10-21T10:40:23.030Z,55
2017-10-21T10:41:23.007Z,55
2017-10-21T10:42:23.002Z,55
2017-10-21T10:43:22.650Z,55
2017-10-21T10:44:22.640Z,55
2017-10-21T10:45:23.300Z,55
2017-10-21T10:46:23.288Z,60
2017-10-21T10:47:23.285Z,70
2017-10-21T10:48:23.261Z,65
2017-10-21T10:49:22.912Z,65
2017-10-21T10:50:22.887Z,70
2017-10-21T10:51:22.586Z,70
2017-10-21T10:52:23.199Z,75
2017-10-21T10:53:22.951Z,90
2017-10-21T10:54:23.171Z,95
2017-10-21T10:55:22.490Z,100
2017-10-21T10:56:23.147Z,105
2017-10-21T10:57:22.793Z,85
2017-10-21T10:58:23.448Z,75
2017-10-21T10:59:23.117Z,65
2017-10-21T11:00:23.430Z,60
2017-10-21T11:01:22.743Z,60
2017-10-21T11:02:23.406Z,60
2017-10-21T11:03:23.045Z,55
2017-10-21T11:04:23.394Z,55
2017-10-21T11:05:22.369Z,65
2017-10-21T11:06:23.024Z,80
2017-10-21T11:07:22.662Z,105
2017-10-21T11:08:23.349Z,120
2017-10-21T11:09:23.003Z,115
2017-10-21T11:10:22.957Z,115
2017-10-21T11:11:21.949Z,110
2017-10-21T11:12:23.265Z,130
2017-10-21T11:13:22.357Z,155
2017-10-21T11:14:22.902Z,115
2017-10-21T11:15:21.888Z,110
2017-10-21T11:16:22.597Z,105
2017-10-21T11:17:22.547Z,120
2017-10-21T11:18:22.850Z,130
2017-10-21T11:19:22.746Z,115
2017-10-21T11:20:22.495Z,130
2017-10-21T11:21:22.475Z,105
2017-10-21T11:22:22.464Z,100
2017-10-21T11:23:22.449Z,110
2017-10-21T11:24:22.441Z,100
2017-10-21T11:25:22.424Z,70
2017-10-21T11:26:22.417Z,65
2017-10-21T11:27:22.731Z,60
2017-10-21T11:28:23.156Z,70
2017-10-21T11:29:21.712Z,85
2017-10-21T11:30:22.712Z,130
2017-10-21T11:31:22.343Z,130
2017-10-21T11:32:22.674Z,105
2017-10-21T11:33:21.988Z,135
2017-10-21T11:34:22.657Z,135
2017-10-21T11:35:22.645Z,185
2017-10-21T11:36:22.618Z,180
2017-10-21T11:37:22.284Z,115
2017-10-21T11:38:22.306Z,90
2017-10-21T11:39:21.916Z,95
2017-10-21T11:40:22.233Z,125
2017-10-21T11:41:22.232Z,145
2017-10-21T11:42:22.220Z,120
2017-10-21T11:43:22.536Z,125
2017-10-21T11:44:22.196Z,120
2017-10-21T11:45:22.180Z,100
2017-10-21T11:46:22.499Z,100
2017-10-21T11:47:22.826Z,90
2017-10-21T11:48:22.381Z,100
2017-10-21T11:49:22.792Z,95
2017-10-21T11:50:22.121Z,90
2017-10-21T11:51:22.157Z,95
2017-10-21T11:52:22.105Z,100
2017-10-21T11:53:22.426Z,115
2017-10-21T11:54:21.730Z,140
2017-10-21T11:55:21.728Z,145
2017-10-21T11:56:21.712Z,155
2017-10-21T11:57:22.364Z,130
2017-10-21T11:58:22.449Z,100
2017-10-21T11:59:22.678Z,100
2017-10-21T12:00:21.985Z,100
2017-10-21T12:01:22.654Z,100
2017-10-21T12:02:21.649Z,90
2017-10-21T12:03:21.949Z,60
2017-10-21T12:04:22.035Z,90
2017-10-21T12:05:21.948Z,145
2017-10-21T12:06:22.248Z,185
2017-10-21T12:07:22.253Z,180
2017-10-21T12:08:22.327Z,160
2017-10-21T12:09:21.554Z,150
2017-10-21T12:10:22.545Z,140
2017-10-21T12:11:21.858Z,115
2017-10-21T12:12:21.516Z,105
2017-10-21T12:13:22.502Z,100
2017-10-21T12:14:21.830Z,100
2017-10-21T12:15:21.477Z,90
2017-10-21T12:16:21.461Z,80
2017-10-21T12:17:21.804Z,80
2017-10-21T12:18:21.787Z,80
2017-10-21T12:19:21.535Z,90
2017-10-21T12:20:21.743Z,95
2017-10-21T12:21:21.740Z,100
2017-10-21T12:22:21.389Z,100
2017-10-21T12:23:21.750Z,105
2017-10-21T12:24:21.703Z,105
2017-10-21T12:25:22.033Z,110
2017-10-21T12:26:21.345Z,110
2017-10-21T12:27:21.327Z,120
2017-10-21T12:28:21.995Z,145
2017-10-21T12:29:22.087Z,165
2017-10-21T12:30:21.639Z,180
2017-10-21T12:31:21.628Z,180
2017-10-21T12:32:20.952Z,165
2017-10-21T12:33:21.600Z,150
2017-10-21T12:34:21.923Z,140
2017-10-21T12:35:22.244Z,135
2017-10-21T12:36:22.245Z,140
2017-10-21T12:37:20.878Z,140
2017-10-21T12:38:22.225Z,165
2017-10-21T12:39:21.189Z,210
2017-10-21T12:40:21.515Z,240
2017-10-21T12:41:21.506Z,270
2017-10-21T12:42:21.835Z,400
2017-10-21T12:43:21.486Z,855
2017-10-21T12:44:21.484Z,505
2017-10-21T12:45:21.457Z,315
2017-10-21T12:46:21.113Z,285
2017-10-21T12:47:21.100Z,300
2017-10-21T12:48:21.758Z,480
2017-10-21T12:49:21.416Z,985
2017-10-21T12:50:21.746Z,1105
2017-10-21T12:51:21.726Z,515
2017-10-21T12:52:22.052Z,795
2017-10-21T12:53:21.700Z,595
2017-10-21T12:54:21.368Z,930
2017-10-21T12:55:21.020Z,340
2017-10-21T12:56:21.362Z,410
2017-10-21T12:57:21.684Z,845
2017-10-21T12:58:21.000Z,520
2017-10-21T12:59:21.091Z,750
2017-10-21T13:00:20.979Z,325
2017-10-21T13:01:21.307Z,245
2017-10-21T13:02:21.638Z,245
2017-10-21T13:03:21.648Z,250
2017-10-21T13:04:21.303Z,260
2017-10-21T13:05:20.946Z,285
2017-10-21T13:06:21.283Z,990
2017-10-21T13:07:21.269Z,910
2017-10-21T13:08:20.588Z,650
2017-10-21T13:09:21.591Z,740
2017-10-21T13:10:21.575Z,680
2017-10-21T13:11:21.226Z,540
2017-10-21T13:12:21.569Z,220
2017-10-21T13:13:20.880Z,570
2017-10-21T13:14:21.554Z,540
2017-10-21T13:15:21.201Z,425
2017-10-21T13:16:21.864Z,640
2017-10-21T13:17:21.532Z,355
2017-10-21T13:18:20.531Z,290
2017-10-21T13:19:21.491Z,175
2017-10-21T13:20:21.191Z,165
2017-10-21T13:21:21.174Z,155
2017-10-21T13:22:21.172Z,145
2017-10-21T13:23:21.488Z,135
2017-10-21T13:24:21.480Z,135
2017-10-21T13:25:21.134Z,120
2017-10-21T13:26:21.133Z,105
2017-10-21T13:27:21.471Z,95
2017-10-21T13:28:21.467Z,90
2017-10-21T13:29:20.772Z,75
2017-10-21T13:30:21.454Z,85
2017-10-21T13:31:21.465Z,115
2017-10-21T13:32:21.430Z,140
2017-10-21T13:33:21.765Z,165
2017-10-21T13:34:21.506Z,155
2017-10-21T13:35:21.743Z,145
2017-10-21T13:36:21.717Z,110
2017-10-21T13:37:21.381Z,100
2017-10-21T13:38:21.379Z,95
2017-10-21T13:39:20.373Z,105
2017-10-21T13:40:20.685Z,130
2017-10-21T13:41:21.020Z,145
2017-10-21T13:42:20.328Z,175
2017-10-21T13:43:21.667Z,185
2017-10-21T13:44:21.454Z,185
2017-10-21T13:45:20.978Z,180
2017-10-21T13:46:21.303Z,195
2017-10-21T13:47:20.639Z,205
2017-10-21T13:48:21.284Z,610
2017-10-21T13:49:20.938Z,260
2017-10-21T13:50:20.923Z,300
2017-10-21T13:51:20.921Z,265
2017-10-21T13:52:21.579Z,210
2017-10-21T13:53:20.570Z,200
2017-10-21T13:54:21.664Z,215
2017-10-21T13:55:21.218Z,275
2017-10-21T13:56:21.212Z,465
2017-10-21T13:57:21.194Z,550
2017-10-21T13:58:20.897Z,430
2017-10-21T13:59:21.177Z,540
2017-10-21T14:00:21.161Z,525
2017-10-21T14:01:20.494Z,385
2017-10-21T14:02:20.812Z,525
2017-10-21T14:03:20.807Z,545
2017-10-21T14:04:20.794Z,455
2017-10-21T14:05:21.461Z,415
2017-10-21T14:06:21.109Z,185
2017-10-21T14:07:20.769Z,215
2017-10-21T14:08:20.777Z,150
2017-10-21T14:09:20.756Z,160
2017-10-21T14:10:20.748Z,150
2017-10-21T14:11:20.402Z,155
2017-10-21T14:12:20.741Z,155
2017-10-21T14:13:21.062Z,165
2017-10-21T14:14:20.732Z,180
2017-10-21T14:15:20.828Z,185
2017-10-21T14:16:21.037Z,165
2017-10-21T14:17:21.031Z,125
2017-10-21T14:18:20.693Z,95
2017-10-21T14:19:21.005Z,75
2017-10-21T14:20:20.666Z,65
2017-10-21T14:21:20.333Z,55
2017-10-21T14:22:20.658Z,60